Girdletree, Maryland
Current Conditions -  °F | °C
As of 7:54 AM on Sunday 21 Dec 2014 (Local Time) from KWAL Reporting Station
Overcast Overcast  
Wind Chill: 29°   Ceiling: 7000
Heat Index: 33°   Visibility: 9mi
Dew Point: 27°   Wind: 5mph
Humidity: 78%   Direction: 10°N
Pressure: 30.34"   Gusts: NA
Location:  38.09°N, 75.4°W
Report Text: KWAL 211254Z AUTO 01004KT 9SM OVC070 01/M03 A3034 RMK AO2 SLP270 T00061028
Loading
Personal Weather Stations






























Interactive Weather Map New forecast layout! Learn more

10-Day Weather Forecast

Advertisements
Track Severe Weather on mobile